sensor_id;sensor_type;location;lat;lon;timestamp;P1;durP1;ratioP1;P2;durP2;ratioP2
12869;SDS011;6503;48.572;13.460;2023-11-22T00:00:33;22.10;;;15.70;;
12869;SDS011;6503;48.572;13.460;2023-11-22T00:03:01;20.15;;;14.73;;
12869;SDS011;6503;48.572;13.460;2023-11-22T00:05:32;22.60;;;15.90;;
12869;SDS011;6503;48.572;13.460;2023-11-22T00:10:36;20.85;;;15.07;;
12869;SDS011;6503;48.572;13.460;2023-11-22T00:13:05;22.85;;;16.05;;
12869;SDS011;6503;48.572;13.460;2023-11-22T00:15:33;21.50;;;16.00;;
12869;SDS011;6503;48.572;13.460;2023-11-22T00:18:03;22.00;;;15.30;;
12869;SDS011;6503;48.572;13.460;2023-11-22T00:20:32;26.73;;;17.55;;
12869;SDS011;6503;48.572;13.460;2023-11-22T00:23:01;23.52;;;17.20;;
12869;SDS011;6503;48.572;13.460;2023-11-22T00:25:31;22.98;;;16.83;;
12869;SDS011;6503;48.572;13.460;2023-11-22T00:30:27;23.52;;;15.75;;
12869;SDS011;6503;48.572;13.460;2023-11-22T00:32:57;25.05;;;15.90;;
12869;SDS011;6503;48.572;13.460;2023-11-22T00:35:25;19.50;;;14.88;;
12869;SDS011;6503;48.572;13.460;2023-11-22T00:37:58;20.35;;;15.55;;
12869;SDS011;6503;48.572;13.460;2023-11-22T00:40:28;23.13;;;15.90;;
12869;SDS011;6503;48.572;13.460;2023-11-22T00:42:56;20.85;;;15.07;;
12869;SDS011;6503;48.572;13.460;2023-11-22T00:45:24;20.77;;;15.82;;
12869;SDS011;6503;48.572;13.460;2023-11-22T00:47:51;22.00;;;16.05;;
12869;SDS011;6503;48.572;13.460;2023-11-22T00:50:19;21.35;;;15.88;;
12869;SDS011;6503;48.572;13.460;2023-11-22T00:52:49;22.60;;;15.77;;
12869;SDS011;6503;48.572;13.460;2023-11-22T00:55:18;25.20;;;16.63;;
12869;SDS011;6503;48.572;13.460;2023-11-22T00:57:47;18.02;;;14.23;;
12869;SDS011;6503;48.572;13.460;2023-11-22T01:00:21;19.10;;;13.57;;
12869;SDS011;6503;48.572;13.460;2023-11-22T01:02:49;18.67;;;12.98;;
12869;SDS011;6503;48.572;13.460;2023-11-22T01:05:19;13.30;;;10.85;;
12869;SDS011;6503;48.572;13.460;2023-11-22T01:07:47;13.45;;;10.45;;
12869;SDS011;6503;48.572;13.460;2023-11-22T01:10:15;10.25;;;8.25;;
12869;SDS011;6503;48.572;13.460;2023-11-22T01:12:44;7.95;;;6.65;;
12869;SDS011;6503;48.572;13.460;2023-11-22T01:15:12;6.53;;;5.22;;
12869;SDS011;6503;48.572;13.460;2023-11-22T01:17:39;7.28;;;4.63;;
12869;SDS011;6503;48.572;13.460;2023-11-22T01:20:08;5.43;;;4.78;;
12869;SDS011;6503;48.572;13.460;2023-11-22T01:22:37;4.90;;;4.03;;
12869;SDS011;6503;48.572;13.460;2023-11-22T01:25:05;5.35;;;3.83;;
12869;SDS011;6503;48.572;13.460;2023-11-22T01:27:36;4.80;;;4.15;;
12869;SDS011;6503;48.572;13.460;2023-11-22T01:30:08;5.22;;;4.72;;
12869;SDS011;6503;48.572;13.460;2023-11-22T01:32:37;5.32;;;4.82;;
12869;SDS011;6503;48.572;13.460;2023-11-22T01:35:05;7.20;;;4.80;;
12869;SDS011;6503;48.572;13.460;2023-11-22T01:37:33;8.45;;;6.25;;
12869;SDS011;6503;48.572;13.460;2023-11-22T01:40:01;5.53;;;4.70;;
12869;SDS011;6503;48.572;13.460;2023-11-22T01:42:29;5.93;;;4.53;;
12869;SDS011;6503;48.572;13.460;2023-11-22T01:44:57;5.93;;;5.00;;
12869;SDS011;6503;48.572;13.460;2023-11-22T01:47:26;7.32;;;4.45;;
12869;SDS011;6503;48.572;13.460;2023-11-22T01:49:53;4.18;;;3.50;;
12869;SDS011;6503;48.572;13.460;2023-11-22T01:52:22;3.17;;;2.88;;
12869;SDS011;6503;48.572;13.460;2023-11-22T01:54:49;3.78;;;2.97;;
12869;SDS011;6503;48.572;13.460;2023-11-22T01:57:16;4.72;;;3.65;;
12869;SDS011;6503;48.572;13.460;2023-11-22T01:59:44;5.50;;;2.60;;
12869;SDS011;6503;48.572;13.460;2023-11-22T02:02:12;3.35;;;1.95;;
12869;SDS011;6503;48.572;13.460;2023-11-22T02:04:41;1.80;;;1.42;;
12869;SDS011;6503;48.572;13.460;2023-11-22T02:07:09;1.33;;;1.23;;
12869;SDS011;6503;48.572;13.460;2023-11-22T02:09:36;1.40;;;1.30;;
12869;SDS011;6503;48.572;13.460;2023-11-22T02:12:04;1.73;;;1.30;;
12869;SDS011;6503;48.572;13.460;2023-11-22T02:14:33;1.02;;;0.93;;
12869;SDS011;6503;48.572;13.460;2023-11-22T02:17:07;1.63;;;1.35;;
12869;SDS011;6503;48.572;13.460;2023-11-22T02:19:35;1.95;;;1.38;;
12869;SDS011;6503;48.572;13.460;2023-11-22T02:22:04;1.45;;;1.05;;
12869;SDS011;6503;48.572;13.460;2023-11-22T02:24:33;1.00;;;0.90;;
12869;SDS011;6503;48.572;13.460;2023-11-22T02:27:00;0.95;;;0.70;;
12869;SDS011;6503;48.572;13.460;2023-11-22T02:29:28;1.42;;;1.00;;
12869;SDS011;6503;48.572;13.460;2023-11-22T02:31:56;0.70;;;0.70;;
12869;SDS011;6503;48.572;13.460;2023-11-22T02:34:25;0.80;;;0.80;;
12869;SDS011;6503;48.572;13.460;2023-11-22T02:36:53;0.80;;;0.80;;
12869;SDS011;6503;48.572;13.460;2023-11-22T02:39:22;2.22;;;1.02;;
12869;SDS011;6503;48.572;13.460;2023-11-22T02:41:54;1.27;;;1.15;;
12869;SDS011;6503;48.572;13.460;2023-11-22T02:44:22;1.23;;;1.00;;
12869;SDS011;6503;48.572;13.460;2023-11-22T02:46:50;1.00;;;0.90;;
12869;SDS011;6503;48.572;13.460;2023-11-22T02:49:18;1.75;;;1.08;;
12869;SDS011;6503;48.572;13.460;2023-11-22T02:51:45;1.52;;;1.30;;
12869;SDS011;6503;48.572;13.460;2023-11-22T02:54:12;1.10;;;1.00;;
12869;SDS011;6503;48.572;13.460;2023-11-22T02:56:40;1.35;;;1.20;;
12869;SDS011;6503;48.572;13.460;2023-11-22T02:59:09;1.25;;;1.00;;
12869;SDS011;6503;48.572;13.460;2023-11-22T03:01:38;1.50;;;1.13;;
12869;SDS011;6503;48.572;13.460;2023-11-22T03:04:08;1.20;;;1.00;;
12869;SDS011;6503;48.572;13.460;2023-11-22T03:06:35;1.85;;;1.00;;
12869;SDS011;6503;48.572;13.460;2023-11-22T03:09:02;1.48;;;1.10;;
12869;SDS011;6503;48.572;13.460;2023-11-22T03:11:30;1.40;;;1.00;;
12869;SDS011;6503;48.572;13.460;2023-11-22T03:13:58;1.15;;;1.02;;
12869;SDS011;6503;48.572;13.460;2023-11-22T03:16:30;1.38;;;1.20;;
12869;SDS011;6503;48.572;13.460;2023-11-22T03:18:58;1.17;;;1.00;;
12869;SDS011;6503;48.572;13.460;2023-11-22T03:21:27;1.67;;;1.15;;
12869;SDS011;6503;48.572;13.460;2023-11-22T03:23:56;1.30;;;1.17;;
12869;SDS011;6503;48.572;13.460;2023-11-22T03:26:25;1.23;;;1.00;;
12869;SDS011;6503;48.572;13.460;2023-11-22T03:28:55;2.05;;;1.15;;
12869;SDS011;6503;48.572;13.460;2023-11-22T03:31:23;3.20;;;1.40;;
12869;SDS011;6503;48.572;13.460;2023-11-22T03:33:53;1.13;;;1.00;;
12869;SDS011;6503;48.572;13.460;2023-11-22T03:36:21;1.05;;;0.90;;
12869;SDS011;6503;48.572;13.460;2023-11-22T03:38:49;1.30;;;1.20;;
12869;SDS011;6503;48.572;13.460;2023-11-22T03:41:18;1.20;;;0.98;;
12869;SDS011;6503;48.572;13.460;2023-11-22T03:43:46;1.45;;;1.17;;
12869;SDS011;6503;48.572;13.460;2023-11-22T03:46:13;1.13;;;1.00;;
12869;SDS011;6503;48.572;13.460;2023-11-22T03:48:40;1.55;;;1.10;;
12869;SDS011;6503;48.572;13.460;2023-11-22T03:51:10;1.30;;;1.20;;
12869;SDS011;6503;48.572;13.460;2023-11-22T03:53:37;1.48;;;1.38;;
12869;SDS011;6503;48.572;13.460;2023-11-22T03:56:05;1.58;;;1.38;;
12869;SDS011;6503;48.572;13.460;2023-11-22T03:58:32;1.10;;;0.93;;
12869;SDS011;6503;48.572;13.460;2023-11-22T04:01:01;1.77;;;1.52;;
12869;SDS011;6503;48.572;13.460;2023-11-22T04:03:29;2.10;;;1.45;;
12869;SDS011;6503;48.572;13.460;2023-11-22T04:05:56;1.90;;;1.52;;
12869;SDS011;6503;48.572;13.460;2023-11-22T04:08:25;3.17;;;1.98;;
12869;SDS011;6503;48.572;13.460;2023-11-22T04:10:52;2.67;;;1.60;;
12869;SDS011;6503;48.572;13.460;2023-11-22T04:13:19;2.30;;;1.88;;
12869;SDS011;6503;48.572;13.460;2023-11-22T04:15:48;1.65;;;1.55;;
12869;SDS011;6503;48.572;13.460;2023-11-22T04:18:15;1.95;;;1.65;;
12869;SDS011;6503;48.572;13.460;2023-11-22T04:20:42;2.00;;;1.80;;
12869;SDS011;6503;48.572;13.460;2023-11-22T04:23:11;2.72;;;1.98;;
12869;SDS011;6503;48.572;13.460;2023-11-22T04:25:42;2.30;;;2.03;;
12869;SDS011;6503;48.572;13.460;2023-11-22T04:28:11;2.55;;;2.00;;
12869;SDS011;6503;48.572;13.460;2023-11-22T04:30:40;2.92;;;2.10;;
12869;SDS011;6503;48.572;13.460;2023-11-22T04:33:07;2.00;;;1.80;;
12869;SDS011;6503;48.572;13.460;2023-11-22T04:35:35;2.92;;;2.20;;
12869;SDS011;6503;48.572;13.460;2023-11-22T04:38:03;2.60;;;2.05;;
12869;SDS011;6503;48.572;13.460;2023-11-22T04:40:32;3.05;;;2.60;;
12869;SDS011;6503;48.572;13.460;2023-11-22T04:43:01;3.53;;;2.20;;
12869;SDS011;6503;48.572;13.460;2023-11-22T04:45:28;2.50;;;2.28;;
12869;SDS011;6503;48.572;13.460;2023-11-22T04:47:56;2.88;;;2.45;;
12869;SDS011;6503;48.572;13.460;2023-11-22T04:50:23;3.97;;;2.72;;
12869;SDS011;6503;48.572;13.460;2023-11-22T04:52:51;2.83;;;2.58;;
12869;SDS011;6503;48.572;13.460;2023-11-22T04:55:18;3.30;;;2.50;;
12869;SDS011;6503;48.572;13.460;2023-11-22T04:57:46;2.72;;;2.53;;
12869;SDS011;6503;48.572;13.460;2023-11-22T05:00:16;2.88;;;2.30;;
12869;SDS011;6503;48.572;13.460;2023-11-22T05:02:43;3.63;;;2.85;;
12869;SDS011;6503;48.572;13.460;2023-11-22T05:05:10;3.53;;;2.90;;
12869;SDS011;6503;48.572;13.460;2023-11-22T05:07:38;2.70;;;2.50;;
12869;SDS011;6503;48.572;13.460;2023-11-22T05:10:05;9.18;;;4.43;;
12869;SDS011;6503;48.572;13.460;2023-11-22T05:12:34;15.55;;;4.25;;
12869;SDS011;6503;48.572;13.460;2023-11-22T05:15:02;7.00;;;3.95;;
12869;SDS011;6503;48.572;13.460;2023-11-22T05:17:31;5.38;;;3.08;;
12869;SDS011;6503;48.572;13.460;2023-11-22T05:19:59;3.35;;;2.80;;
12869;SDS011;6503;48.572;13.460;2023-11-22T05:22:27;3.20;;;2.90;;
12869;SDS011;6503;48.572;13.460;2023-11-22T05:24:54;3.15;;;2.50;;
12869;SDS011;6503;48.572;13.460;2023-11-22T05:27:25;4.07;;;2.75;;
12869;SDS011;6503;48.572;13.460;2023-11-22T05:29:53;5.20;;;2.87;;
12869;SDS011;6503;48.572;13.460;2023-11-22T05:32:21;4.57;;;3.00;;
12869;SDS011;6503;48.572;13.460;2023-11-22T05:34:50;3.20;;;2.90;;
12869;SDS011;6503;48.572;13.460;2023-11-22T05:37:18;3.70;;;3.33;;
12869;SDS011;6503;48.572;13.460;2023-11-22T05:39:45;3.33;;;2.90;;
12869;SDS011;6503;48.572;13.460;2023-11-22T05:42:12;3.22;;;2.80;;
12869;SDS011;6503;48.572;13.460;2023-11-22T05:44:39;3.70;;;3.03;;
12869;SDS011;6503;48.572;13.460;2023-11-22T05:47:07;3.97;;;3.33;;
12869;SDS011;6503;48.572;13.460;2023-11-22T05:49:34;4.18;;;2.80;;
12869;SDS011;6503;48.572;13.460;2023-11-22T05:52:04;3.75;;;3.38;;
12869;SDS011;6503;48.572;13.460;2023-11-22T05:54:32;3.70;;;3.33;;
12869;SDS011;6503;48.572;13.460;2023-11-22T05:56:59;3.30;;;3.00;;
12869;SDS011;6503;48.572;13.460;2023-11-22T05:59:26;3.25;;;2.88;;
12869;SDS011;6503;48.572;13.460;2023-11-22T06:01:54;4.10;;;3.70;;
12869;SDS011;6503;48.572;13.460;2023-11-22T06:04:22;3.20;;;2.90;;
12869;SDS011;6503;48.572;13.460;2023-11-22T06:06:52;4.88;;;3.00;;
12869;SDS011;6503;48.572;13.460;2023-11-22T06:09:21;3.70;;;3.15;;
12869;SDS011;6503;48.572;13.460;2023-11-22T06:11:49;2.90;;;2.60;;
12869;SDS011;6503;48.572;13.460;2023-11-22T06:14:16;2.80;;;2.50;;
12869;SDS011;6503;48.572;13.460;2023-11-22T06:16:47;3.30;;;2.83;;
12869;SDS011;6503;48.572;13.460;2023-11-22T06:19:15;2.40;;;2.20;;
12869;SDS011;6503;48.572;13.460;2023-11-22T06:21:42;2.78;;;2.42;;
12869;SDS011;6503;48.572;13.460;2023-11-22T06:24:12;2.95;;;2.72;;
12869;SDS011;6503;48.572;13.460;2023-11-22T06:26:43;3.15;;;2.85;;
12869;SDS011;6503;48.572;13.460;2023-11-22T06:31:38;3.53;;;2.40;;
12869;SDS011;6503;48.572;13.460;2023-11-22T06:34:06;2.38;;;2.08;;
12869;SDS011;6503;48.572;13.460;2023-11-22T06:36:33;2.20;;;2.00;;
12869;SDS011;6503;48.572;13.460;2023-11-22T06:39:01;2.38;;;1.83;;
12869;SDS011;6503;48.572;13.460;2023-11-22T06:41:29;2.80;;;2.55;;
12869;SDS011;6503;48.572;13.460;2023-11-22T06:43:58;4.15;;;2.55;;
12869;SDS011;6503;48.572;13.460;2023-11-22T06:46:25;3.08;;;2.35;;
12869;SDS011;6503;48.572;13.460;2023-11-22T06:48:54;3.05;;;2.40;;
12869;SDS011;6503;48.572;13.460;2023-11-22T06:51:22;2.20;;;2.00;;
12869;SDS011;6503;48.572;13.460;2023-11-22T06:53:49;3.92;;;2.00;;
12869;SDS011;6503;48.572;13.460;2023-11-22T06:56:17;4.32;;;2.35;;
12869;SDS011;6503;48.572;13.460;2023-11-22T06:58:44;3.17;;;1.92;;
12869;SDS011;6503;48.572;13.460;2023-11-22T07:01:14;2.58;;;1.80;;
12869;SDS011;6503;48.572;13.460;2023-11-22T07:03:41;3.35;;;1.75;;
12869;SDS011;6503;48.572;13.460;2023-11-22T07:06:08;3.47;;;1.67;;
12869;SDS011;6503;48.572;13.460;2023-11-22T07:08:36;2.53;;;1.70;;
12869;SDS011;6503;48.572;13.460;2023-11-22T07:11:03;2.63;;;1.98;;
12869;SDS011;6503;48.572;13.460;2023-11-22T07:13:34;3.15;;;1.90;;
12869;SDS011;6503;48.572;13.460;2023-11-22T07:16:03;3.20;;;1.65;;
12869;SDS011;6503;48.572;13.460;2023-11-22T07:18:33;4.55;;;1.60;;
12869;SDS011;6503;48.572;13.460;2023-11-22T07:21:02;2.63;;;1.75;;
12869;SDS011;6503;48.572;13.460;2023-11-22T07:23:30;1.80;;;1.60;;
12869;SDS011;6503;48.572;13.460;2023-11-22T07:25:58;1.60;;;1.50;;
12869;SDS011;6503;48.572;13.460;2023-11-22T07:28:28;2.63;;;1.90;;
12869;SDS011;6503;48.572;13.460;2023-11-22T07:30:56;3.28;;;2.00;;
12869;SDS011;6503;48.572;13.460;2023-11-22T07:33:24;2.70;;;1.80;;
12869;SDS011;6503;48.572;13.460;2023-11-22T07:35:59;2.00;;;1.70;;
12869;SDS011;6503;48.572;13.460;2023-11-22T07:38:27;3.60;;;1.90;;
12869;SDS011;6503;48.572;13.460;2023-11-22T07:40:56;3.85;;;1.60;;
12869;SDS011;6503;48.572;13.460;2023-11-22T07:43:26;3.35;;;2.03;;
12869;SDS011;6503;48.572;13.460;2023-11-22T07:45:53;1.60;;;1.50;;
12869;SDS011;6503;48.572;13.460;2023-11-22T07:48:20;2.78;;;2.10;;
12869;SDS011;6503;48.572;13.460;2023-11-22T07:50:48;3.72;;;2.03;;
12869;SDS011;6503;48.572;13.460;2023-11-22T07:53:17;3.38;;;1.73;;
12869;SDS011;6503;48.572;13.460;2023-11-22T07:55:44;3.20;;;1.70;;
12869;SDS011;6503;48.572;13.460;2023-11-22T07:58:12;2.55;;;1.65;;
12869;SDS011;6503;48.572;13.460;2023-11-22T08:00:41;2.00;;;1.60;;
12869;SDS011;6503;48.572;13.460;2023-11-22T08:03:10;6.22;;;2.40;;
12869;SDS011;6503;48.572;13.460;2023-11-22T08:05:41;4.88;;;1.90;;
12869;SDS011;6503;48.572;13.460;2023-11-22T08:08:19;1.40;;;1.30;;
12869;SDS011;6503;48.572;13.460;2023-11-22T08:10:47;2.10;;;1.90;;
12869;SDS011;6503;48.572;13.460;2023-11-22T08:13:18;1.90;;;1.70;;
12869;SDS011;6503;48.572;13.460;2023-11-22T08:15:47;1.90;;;1.70;;
12869;SDS011;6503;48.572;13.460;2023-11-22T08:18:15;2.95;;;1.73;;
12869;SDS011;6503;48.572;13.460;2023-11-22T08:20:43;2.33;;;1.70;;
12869;SDS011;6503;48.572;13.460;2023-11-22T08:23:10;2.47;;;1.92;;
12869;SDS011;6503;48.572;13.460;2023-11-22T08:25:41;2.15;;;1.95;;
12869;SDS011;6503;48.572;13.460;2023-11-22T08:28:10;2.28;;;1.98;;
12869;SDS011;6503;48.572;13.460;2023-11-22T08:30:39;2.30;;;2.10;;
12869;SDS011;6503;48.572;13.460;2023-11-22T08:33:07;2.30;;;2.10;;
12869;SDS011;6503;48.572;13.460;2023-11-22T08:35:34;4.55;;;2.17;;
12869;SDS011;6503;48.572;13.460;2023-11-22T08:38:02;2.78;;;2.35;;
12869;SDS011;6503;48.572;13.460;2023-11-22T08:40:34;2.50;;;2.25;;
12869;SDS011;6503;48.572;13.460;2023-11-22T08:45:49;4.85;;;2.63;;
12869;SDS011;6503;48.572;13.460;2023-11-22T08:50:46;5.90;;;2.88;;
12869;SDS011;6503;48.572;13.460;2023-11-22T08:53:14;3.10;;;2.70;;
12869;SDS011;6503;48.572;13.460;2023-11-22T08:55:44;3.42;;;2.78;;
12869;SDS011;6503;48.572;13.460;2023-11-22T08:58:11;3.50;;;2.83;;
12869;SDS011;6503;48.572;13.460;2023-11-22T09:00:38;3.88;;;3.00;;
12869;SDS011;6503;48.572;13.460;2023-11-22T09:03:08;4.63;;;2.85;;
12869;SDS011;6503;48.572;13.460;2023-11-22T09:05:38;3.72;;;3.33;;
12869;SDS011;6503;48.572;13.460;2023-11-22T09:08:06;3.78;;;3.42;;
12869;SDS011;6503;48.572;13.460;2023-11-22T09:10:41;3.72;;;3.40;;
12869;SDS011;6503;48.572;13.460;2023-11-22T09:13:13;3.65;;;3.35;;
12869;SDS011;6503;48.572;13.460;2023-11-22T09:15:41;3.83;;;3.45;;
12869;SDS011;6503;48.572;13.460;2023-11-22T09:18:11;4.00;;;3.60;;
12869;SDS011;6503;48.572;13.460;2023-11-22T09:20:38;5.75;;;4.05;;
12869;SDS011;6503;48.572;13.460;2023-11-22T09:23:09;5.43;;;4.00;;
12869;SDS011;6503;48.572;13.460;2023-11-22T09:25:37;5.78;;;4.22;;
12869;SDS011;6503;48.572;13.460;2023-11-22T09:28:04;4.85;;;4.00;;
12869;SDS011;6503;48.572;13.460;2023-11-22T09:30:32;5.63;;;4.63;;
12869;SDS011;6503;48.572;13.460;2023-11-22T09:33:03;6.40;;;5.60;;
12869;SDS011;6503;48.572;13.460;2023-11-22T09:35:33;5.70;;;5.00;;
12869;SDS011;6503;48.572;13.460;2023-11-22T09:38:01;6.28;;;5.68;;
12869;SDS011;6503;48.572;13.460;2023-11-22T09:40:28;6.43;;;5.10;;
12869;SDS011;6503;48.572;13.460;2023-11-22T09:42:57;6.43;;;5.75;;
12869;SDS011;6503;48.572;13.460;2023-11-22T09:45:26;6.53;;;5.18;;
12869;SDS011;6503;48.572;13.460;2023-11-22T09:47:54;8.40;;;6.97;;
12869;SDS011;6503;48.572;13.460;2023-11-22T09:50:29;5.20;;;4.55;;
12869;SDS011;6503;48.572;13.460;2023-11-22T09:53:02;6.55;;;5.35;;
12869;SDS011;6503;48.572;13.460;2023-11-22T09:55:34;6.57;;;5.30;;
12869;SDS011;6503;48.572;13.460;2023-11-22T09:58:02;5.50;;;4.95;;
12869;SDS011;6503;48.572;13.460;2023-11-22T10:00:30;6.47;;;5.07;;
12869;SDS011;6503;48.572;13.460;2023-11-22T10:02:57;6.07;;;4.90;;
12869;SDS011;6503;48.572;13.460;2023-11-22T10:05:25;6.85;;;5.47;;
12869;SDS011;6503;48.572;13.460;2023-11-22T10:07:53;7.03;;;5.13;;
12869;SDS011;6503;48.572;13.460;2023-11-22T10:10:23;6.22;;;5.13;;
12869;SDS011;6503;48.572;13.460;2023-11-22T10:12:52;7.93;;;5.15;;
12869;SDS011;6503;48.572;13.460;2023-11-22T10:15:21;5.07;;;4.57;;
12869;SDS011;6503;48.572;13.460;2023-11-22T10:17:53;5.82;;;5.20;;
12869;SDS011;6503;48.572;13.460;2023-11-22T10:20:23;7.68;;;6.30;;
12869;SDS011;6503;48.572;13.460;2023-11-22T10:22:53;7.35;;;4.65;;
12869;SDS011;6503;48.572;13.460;2023-11-22T10:25:21;6.47;;;5.30;;
12869;SDS011;6503;48.572;13.460;2023-11-22T10:27:49;9.88;;;5.75;;
12869;SDS011;6503;48.572;13.460;2023-11-22T10:30:17;5.50;;;4.50;;
12869;SDS011;6503;48.572;13.460;2023-11-22T10:32:45;6.70;;;5.32;;
12869;SDS011;6503;48.572;13.460;2023-11-22T10:35:12;5.88;;;4.85;;
12869;SDS011;6503;48.572;13.460;2023-11-22T10:37:42;7.85;;;4.68;;
12869;SDS011;6503;48.572;13.460;2023-11-22T10:40:12;8.32;;;5.05;;
12869;SDS011;6503;48.572;13.460;2023-11-22T10:42:40;5.95;;;5.30;;
12869;SDS011;6503;48.572;13.460;2023-11-22T10:45:10;6.23;;;4.47;;
12869;SDS011;6503;48.572;13.460;2023-11-22T10:47:38;6.28;;;4.53;;
12869;SDS011;6503;48.572;13.460;2023-11-22T10:50:07;6.05;;;5.25;;
12869;SDS011;6503;48.572;13.460;2023-11-22T10:52:37;7.72;;;4.95;;
12869;SDS011;6503;48.572;13.460;2023-11-22T10:55:08;5.55;;;4.63;;
12869;SDS011;6503;48.572;13.460;2023-11-22T10:57:44;5.15;;;4.45;;
12869;SDS011;6503;48.572;13.460;2023-11-22T11:00:15;4.53;;;4.13;;
12869;SDS011;6503;48.572;13.460;2023-11-22T11:02:44;5.35;;;4.57;;
12869;SDS011;6503;48.572;13.460;2023-11-22T11:05:15;7.32;;;4.60;;
12869;SDS011;6503;48.572;13.460;2023-11-22T11:07:45;6.80;;;4.80;;
12869;SDS011;6503;48.572;13.460;2023-11-22T11:10:14;5.65;;;5.05;;
12869;SDS011;6503;48.572;13.460;2023-11-22T11:12:42;6.25;;;4.72;;
12869;SDS011;6503;48.572;13.460;2023-11-22T11:15:10;7.20;;;5.22;;
12869;SDS011;6503;48.572;13.460;2023-11-22T11:17:41;6.53;;;5.10;;
12869;SDS011;6503;48.572;13.460;2023-11-22T11:20:10;5.38;;;4.88;;
12869;SDS011;6503;48.572;13.460;2023-11-22T11:22:38;6.35;;;5.07;;
12869;SDS011;6503;48.572;13.460;2023-11-22T11:25:06;7.35;;;5.25;;
12869;SDS011;6503;48.572;13.460;2023-11-22T11:27:35;7.32;;;5.30;;
12869;SDS011;6503;48.572;13.460;2023-11-22T11:32:49;6.72;;;5.15;;
12869;SDS011;6503;48.572;13.460;2023-11-22T11:35:17;7.40;;;5.45;;
12869;SDS011;6503;48.572;13.460;2023-11-22T11:37:46;6.60;;;5.30;;
12869;SDS011;6503;48.572;13.460;2023-11-22T11:42:56;6.40;;;5.43;;
12869;SDS011;6503;48.572;13.460;2023-11-22T11:45:24;6.25;;;5.60;;
12869;SDS011;6503;48.572;13.460;2023-11-22T11:47:53;6.80;;;4.90;;
12869;SDS011;6503;48.572;13.460;2023-11-22T11:50:20;7.68;;;5.57;;
12869;SDS011;6503;48.572;13.460;2023-11-22T11:52:48;6.65;;;5.20;;
12869;SDS011;6503;48.572;13.460;2023-11-22T11:55:15;6.50;;;5.38;;
12869;SDS011;6503;48.572;13.460;2023-11-22T11:57:43;6.95;;;5.25;;
12869;SDS011;6503;48.572;13.460;2023-11-22T12:00:13;7.45;;;5.55;;
12869;SDS011;6503;48.572;13.460;2023-11-22T12:02:41;10.05;;;5.95;;
12869;SDS011;6503;48.572;13.460;2023-11-22T12:05:10;5.80;;;4.90;;
12869;SDS011;6503;48.572;13.460;2023-11-22T12:07:38;6.32;;;4.88;;
12869;SDS011;6503;48.572;13.460;2023-11-22T12:10:05;6.45;;;5.57;;
12869;SDS011;6503;48.572;13.460;2023-11-22T12:12:34;5.72;;;4.80;;
12869;SDS011;6503;48.572;13.460;2023-11-22T12:15:02;6.97;;;5.47;;
12869;SDS011;6503;48.572;13.460;2023-11-22T12:17:31;6.40;;;4.85;;
12869;SDS011;6503;48.572;13.460;2023-11-22T12:20:08;6.15;;;5.47;;
12869;SDS011;6503;48.572;13.460;2023-11-22T12:22:38;5.95;;;4.95;;
12869;SDS011;6503;48.572;13.460;2023-11-22T12:25:06;5.70;;;4.60;;
12869;SDS011;6503;48.572;13.460;2023-11-22T12:27:38;5.95;;;4.85;;
12869;SDS011;6503;48.572;13.460;2023-11-22T12:30:07;7.57;;;5.50;;
12869;SDS011;6503;48.572;13.460;2023-11-22T12:32:37;8.90;;;5.40;;
12869;SDS011;6503;48.572;13.460;2023-11-22T12:35:06;7.28;;;5.45;;
12869;SDS011;6503;48.572;13.460;2023-11-22T12:37:34;6.00;;;5.03;;
12869;SDS011;6503;48.572;13.460;2023-11-22T12:42:51;8.75;;;7.10;;
12869;SDS011;6503;48.572;13.460;2023-11-22T12:45:20;5.53;;;4.97;;
12869;SDS011;6503;48.572;13.460;2023-11-22T12:47:51;8.63;;;5.05;;
12869;SDS011;6503;48.572;13.460;2023-11-22T12:50:29;5.53;;;4.63;;
12869;SDS011;6503;48.572;13.460;2023-11-22T12:52:57;10.75;;;5.97;;
12869;SDS011;6503;48.572;13.460;2023-11-22T12:55:24;7.65;;;4.80;;
12869;SDS011;6503;48.572;13.460;2023-11-22T12:57:58;7.63;;;4.93;;
12869;SDS011;6503;48.572;13.460;2023-11-22T13:00:28;6.13;;;4.68;;
12869;SDS011;6503;48.572;13.460;2023-11-22T13:02:56;6.43;;;5.40;;
12869;SDS011;6503;48.572;13.460;2023-11-22T13:05:26;7.47;;;5.15;;
12869;SDS011;6503;48.572;13.460;2023-11-22T13:07:55;5.72;;;4.70;;
12869;SDS011;6503;48.572;13.460;2023-11-22T13:10:22;5.68;;;4.60;;
12869;SDS011;6503;48.572;13.460;2023-11-22T13:12:54;5.75;;;4.68;;
12869;SDS011;6503;48.572;13.460;2023-11-22T13:15:25;7.88;;;5.07;;
12869;SDS011;6503;48.572;13.460;2023-11-22T13:17:55;7.63;;;5.35;;
12869;SDS011;6503;48.572;13.460;2023-11-22T13:20:23;5.53;;;5.00;;
12869;SDS011;6503;48.572;13.460;2023-11-22T13:22:53;6.93;;;5.25;;
12869;SDS011;6503;48.572;13.460;2023-11-22T13:25:21;5.57;;;4.90;;
12869;SDS011;6503;48.572;13.460;2023-11-22T13:27:50;6.32;;;5.57;;
12869;SDS011;6503;48.572;13.460;2023-11-22T13:30:18;13.40;;;12.18;;
12869;SDS011;6503;48.572;13.460;2023-11-22T13:32:49;7.70;;;6.15;;
12869;SDS011;6503;48.572;13.460;2023-11-22T13:35:17;6.90;;;5.50;;
12869;SDS011;6503;48.572;13.460;2023-11-22T13:37:44;7.05;;;6.15;;
12869;SDS011;6503;48.572;13.460;2023-11-22T13:40:13;9.52;;;6.35;;
12869;SDS011;6503;48.572;13.460;2023-11-22T13:42:43;7.70;;;6.75;;
12869;SDS011;6503;48.572;13.460;2023-11-22T13:45:13;8.02;;;6.68;;
12869;SDS011;6503;48.572;13.460;2023-11-22T13:47:45;6.72;;;6.00;;
12869;SDS011;6503;48.572;13.460;2023-11-22T13:50:14;7.00;;;6.28;;
12869;SDS011;6503;48.572;13.460;2023-11-22T13:52:43;8.95;;;6.40;;
12869;SDS011;6503;48.572;13.460;2023-11-22T13:55:12;8.63;;;6.47;;
12869;SDS011;6503;48.572;13.460;2023-11-22T13:57:41;6.93;;;6.22;;
12869;SDS011;6503;48.572;13.460;2023-11-22T14:00:09;7.32;;;6.57;;
12869;SDS011;6503;48.572;13.460;2023-11-22T14:02:44;7.13;;;5.95;;
12869;SDS011;6503;48.572;13.460;2023-11-22T14:05:22;7.65;;;6.18;;
12869;SDS011;6503;48.572;13.460;2023-11-22T14:07:50;9.07;;;6.70;;
12869;SDS011;6503;48.572;13.460;2023-11-22T14:10:19;7.33;;;5.63;;
12869;SDS011;6503;48.572;13.460;2023-11-22T14:12:49;9.32;;;6.32;;
12869;SDS011;6503;48.572;13.460;2023-11-22T14:15:25;7.60;;;6.38;;
12869;SDS011;6503;48.572;13.460;2023-11-22T14:17:53;9.02;;;7.38;;
12869;SDS011;6503;48.572;13.460;2023-11-22T14:20:22;7.28;;;6.38;;
12869;SDS011;6503;48.572;13.460;2023-11-22T14:22:51;8.43;;;6.85;;
12869;SDS011;6503;48.572;13.460;2023-11-22T14:25:18;9.52;;;7.43;;
12869;SDS011;6503;48.572;13.460;2023-11-22T14:27:46;7.80;;;6.15;;
12869;SDS011;6503;48.572;13.460;2023-11-22T14:30:17;8.25;;;6.07;;
12869;SDS011;6503;48.572;13.460;2023-11-22T14:32:46;9.13;;;7.20;;
12869;SDS011;6503;48.572;13.460;2023-11-22T14:35:16;7.10;;;6.40;;
12869;SDS011;6503;48.572;13.460;2023-11-22T14:37:46;7.05;;;6.20;;
12869;SDS011;6503;48.572;13.460;2023-11-22T14:40:18;9.52;;;7.47;;
12869;SDS011;6503;48.572;13.460;2023-11-22T14:42:45;11.85;;;6.93;;
12869;SDS011;6503;48.572;13.460;2023-11-22T14:45:15;9.90;;;8.32;;
12869;SDS011;6503;48.572;13.460;2023-11-22T14:47:45;9.00;;;6.88;;
12869;SDS011;6503;48.572;13.460;2023-11-22T14:50:12;9.73;;;7.20;;
12869;SDS011;6503;48.572;13.460;2023-11-22T14:52:40;9.43;;;7.13;;
12869;SDS011;6503;48.572;13.460;2023-11-22T14:55:11;8.30;;;6.55;;
12869;SDS011;6503;48.572;13.460;2023-11-22T14:57:39;8.27;;;6.55;;
12869;SDS011;6503;48.572;13.460;2023-11-22T15:00:07;8.13;;;6.25;;
12869;SDS011;6503;48.572;13.460;2023-11-22T15:02:38;6.97;;;6.07;;
12869;SDS011;6503;48.572;13.460;2023-11-22T15:05:07;9.80;;;6.70;;
12869;SDS011;6503;48.572;13.460;2023-11-22T15:10:06;7.32;;;6.50;;
12869;SDS011;6503;48.572;13.460;2023-11-22T15:12:38;8.43;;;6.90;;
12869;SDS011;6503;48.572;13.460;2023-11-22T15:17:34;7.30;;;6.00;;
12869;SDS011;6503;48.572;13.460;2023-11-22T15:20:01;10.00;;;6.95;;